sensor_id;sensor_type;location;lat;lon;timestamp;P1;durP1;ratioP1;P2;durP2;ratioP2
23586;SDS011;11971;51.148;4.104;2023-06-14T00:00:38;99.85;;;42.80;;
23586;SDS011;11971;51.148;4.104;2023-06-14T00:03:07;100.07;;;42.58;;
23586;SDS011;11971;51.148;4.104;2023-06-14T00:05:36;103.25;;;42.70;;
23586;SDS011;11971;51.148;4.104;2023-06-14T00:08:06;101.95;;;42.97;;
23586;SDS011;11971;51.148;4.104;2023-06-14T00:10:33;98.45;;;43.20;;
23586;SDS011;11971;51.148;4.104;2023-06-14T00:13:00;104.93;;;42.63;;
23586;SDS011;11971;51.148;4.104;2023-06-14T00:15:27;103.63;;;43.88;;
23586;SDS011;11971;51.148;4.104;2023-06-14T00:17:56;101.43;;;43.60;;
23586;SDS011;11971;51.148;4.104;2023-06-14T00:20:25;105.93;;;43.03;;
23586;SDS011;11971;51.148;4.104;2023-06-14T00:22:54;99.82;;;42.75;;
23586;SDS011;11971;51.148;4.104;2023-06-14T00:25:22;103.80;;;42.97;;
23586;SDS011;11971;51.148;4.104;2023-06-14T00:27:49;100.65;;;42.70;;
23586;SDS011;11971;51.148;4.104;2023-06-14T00:30:15;101.70;;;43.25;;
23586;SDS011;11971;51.148;4.104;2023-06-14T00:32:42;104.85;;;43.50;;
23586;SDS011;11971;51.148;4.104;2023-06-14T00:35:11;102.15;;;43.13;;
23586;SDS011;11971;51.148;4.104;2023-06-14T00:37:38;101.60;;;43.53;;
23586;SDS011;11971;51.148;4.104;2023-06-14T00:40:07;101.38;;;43.70;;
23586;SDS011;11971;51.148;4.104;2023-06-14T00:42:34;108.18;;;43.83;;
23586;SDS011;11971;51.148;4.104;2023-06-14T00:45:01;101.30;;;43.72;;
23586;SDS011;11971;51.148;4.104;2023-06-14T00:47:27;103.93;;;43.55;;
23586;SDS011;11971;51.148;4.104;2023-06-14T00:49:54;101.80;;;43.38;;
23586;SDS011;11971;51.148;4.104;2023-06-14T00:52:21;101.95;;;43.55;;
23586;SDS011;11971;51.148;4.104;2023-06-14T00:54:49;100.15;;;43.63;;
23586;SDS011;11971;51.148;4.104;2023-06-14T00:57:17;103.57;;;43.10;;
23586;SDS011;11971;51.148;4.104;2023-06-14T00:59:45;104.77;;;43.10;;
23586;SDS011;11971;51.148;4.104;2023-06-14T01:02:14;99.45;;;43.60;;
23586;SDS011;11971;51.148;4.104;2023-06-14T01:04:42;105.38;;;44.28;;
23586;SDS011;11971;51.148;4.104;2023-06-14T01:07:18;106.45;;;44.63;;
23586;SDS011;11971;51.148;4.104;2023-06-14T01:09:57;100.43;;;44.00;;
23586;SDS011;11971;51.148;4.104;2023-06-14T01:12:31;100.90;;;44.22;;
23586;SDS011;11971;51.148;4.104;2023-06-14T01:15:02;104.53;;;44.33;;
23586;SDS011;11971;51.148;4.104;2023-06-14T01:17:31;100.80;;;44.47;;
23586;SDS011;11971;51.148;4.104;2023-06-14T01:19:58;101.93;;;43.22;;
23586;SDS011;11971;51.148;4.104;2023-06-14T01:22:25;101.40;;;43.85;;
23586;SDS011;11971;51.148;4.104;2023-06-14T01:24:53;103.97;;;44.83;;
23586;SDS011;11971;51.148;4.104;2023-06-14T01:27:22;100.60;;;43.90;;
23586;SDS011;11971;51.148;4.104;2023-06-14T01:29:49;117.43;;;44.40;;
23586;SDS011;11971;51.148;4.104;2023-06-14T01:32:17;101.63;;;44.13;;
23586;SDS011;11971;51.148;4.104;2023-06-14T01:34:44;103.88;;;43.42;;
23586;SDS011;11971;51.148;4.104;2023-06-14T01:37:11;105.15;;;44.22;;
23586;SDS011;11971;51.148;4.104;2023-06-14T01:39:38;107.80;;;43.65;;
23586;SDS011;11971;51.148;4.104;2023-06-14T01:42:07;104.05;;;43.70;;
23586;SDS011;11971;51.148;4.104;2023-06-14T01:44:34;101.23;;;43.83;;
23586;SDS011;11971;51.148;4.104;2023-06-14T01:47:00;107.25;;;43.25;;
23586;SDS011;11971;51.148;4.104;2023-06-14T01:49:27;107.13;;;43.08;;
23586;SDS011;11971;51.148;4.104;2023-06-14T01:51:54;102.90;;;42.53;;
23586;SDS011;11971;51.148;4.104;2023-06-14T01:54:20;101.20;;;43.20;;
23586;SDS011;11971;51.148;4.104;2023-06-14T01:56:48;101.18;;;43.05;;
23586;SDS011;11971;51.148;4.104;2023-06-14T01:59:16;100.68;;;43.22;;
23586;SDS011;11971;51.148;4.104;2023-06-14T02:01:42;104.93;;;42.60;;
23586;SDS011;11971;51.148;4.104;2023-06-14T02:04:09;96.70;;;41.85;;
23586;SDS011;11971;51.148;4.104;2023-06-14T02:06:36;101.75;;;42.20;;
23586;SDS011;11971;51.148;4.104;2023-06-14T02:09:03;102.22;;;42.40;;
23586;SDS011;11971;51.148;4.104;2023-06-14T02:11:30;98.53;;;42.92;;
23586;SDS011;11971;51.148;4.104;2023-06-14T02:13:57;102.20;;;42.70;;
23586;SDS011;11971;51.148;4.104;2023-06-14T02:16:26;94.85;;;41.53;;
23586;SDS011;11971;51.148;4.104;2023-06-14T02:18:54;101.53;;;43.00;;
23586;SDS011;11971;51.148;4.104;2023-06-14T02:21:22;102.72;;;42.33;;
23586;SDS011;11971;51.148;4.104;2023-06-14T02:23:48;96.65;;;41.83;;
23586;SDS011;11971;51.148;4.104;2023-06-14T02:26:15;100.30;;;42.50;;
23586;SDS011;11971;51.148;4.104;2023-06-14T02:28:42;98.05;;;42.28;;
23586;SDS011;11971;51.148;4.104;2023-06-14T02:31:08;99.50;;;42.85;;
23586;SDS011;11971;51.148;4.104;2023-06-14T02:33:37;103.10;;;42.53;;
23586;SDS011;11971;51.148;4.104;2023-06-14T02:36:03;99.10;;;41.80;;
23586;SDS011;11971;51.148;4.104;2023-06-14T02:38:30;100.63;;;42.55;;
23586;SDS011;11971;51.148;4.104;2023-06-14T02:40:57;100.32;;;42.28;;
23586;SDS011;11971;51.148;4.104;2023-06-14T02:43:24;97.22;;;41.88;;
23586;SDS011;11971;51.148;4.104;2023-06-14T02:45:51;98.65;;;41.42;;
23586;SDS011;11971;51.148;4.104;2023-06-14T02:48:17;98.90;;;42.15;;
23586;SDS011;11971;51.148;4.104;2023-06-14T02:50:45;100.97;;;41.58;;
23586;SDS011;11971;51.148;4.104;2023-06-14T02:53:12;97.50;;;41.60;;
23586;SDS011;11971;51.148;4.104;2023-06-14T02:55:39;95.57;;;40.97;;
23586;SDS011;11971;51.148;4.104;2023-06-14T02:58:05;95.55;;;40.88;;
23586;SDS011;11971;51.148;4.104;2023-06-14T03:00:32;95.38;;;40.78;;
23586;SDS011;11971;51.148;4.104;2023-06-14T03:03:03;95.93;;;41.03;;
23586;SDS011;11971;51.148;4.104;2023-06-14T03:05:34;97.03;;;41.28;;
23586;SDS011;11971;51.148;4.104;2023-06-14T03:08:02;97.55;;;40.78;;
23586;SDS011;11971;51.148;4.104;2023-06-14T03:10:30;102.43;;;41.08;;
23586;SDS011;11971;51.148;4.104;2023-06-14T03:12:57;95.47;;;40.58;;
23586;SDS011;11971;51.148;4.104;2023-06-14T03:15:24;96.47;;;40.90;;
23586;SDS011;11971;51.148;4.104;2023-06-14T03:17:52;96.00;;;40.95;;
23586;SDS011;11971;51.148;4.104;2023-06-14T03:20:19;96.25;;;40.83;;
23586;SDS011;11971;51.148;4.104;2023-06-14T03:22:45;98.10;;;40.53;;
23586;SDS011;11971;51.148;4.104;2023-06-14T03:25:18;99.00;;;41.22;;
23586;SDS011;11971;51.148;4.104;2023-06-14T03:27:46;95.07;;;40.97;;
23586;SDS011;11971;51.148;4.104;2023-06-14T03:30:13;97.45;;;40.47;;
23586;SDS011;11971;51.148;4.104;2023-06-14T03:32:40;95.50;;;40.58;;
23586;SDS011;11971;51.148;4.104;2023-06-14T03:35:07;99.85;;;41.38;;
23586;SDS011;11971;51.148;4.104;2023-06-14T03:37:35;94.10;;;40.55;;
23586;SDS011;11971;51.148;4.104;2023-06-14T03:40:02;95.93;;;41.17;;
23586;SDS011;11971;51.148;4.104;2023-06-14T03:42:32;102.05;;;40.95;;
23586;SDS011;11971;51.148;4.104;2023-06-14T03:44:59;101.70;;;41.63;;
23586;SDS011;11971;51.148;4.104;2023-06-14T03:47:26;95.32;;;41.03;;
23586;SDS011;11971;51.148;4.104;2023-06-14T03:49:52;101.22;;;41.38;;
23586;SDS011;11971;51.148;4.104;2023-06-14T03:52:19;96.35;;;41.22;;
23586;SDS011;11971;51.148;4.104;2023-06-14T03:54:47;98.25;;;41.03;;
23586;SDS011;11971;51.148;4.104;2023-06-14T03:57:13;96.93;;;41.08;;
23586;SDS011;11971;51.148;4.104;2023-06-14T03:59:42;94.60;;;40.90;;
23586;SDS011;11971;51.148;4.104;2023-06-14T04:02:08;96.75;;;41.47;;
23586;SDS011;11971;51.148;4.104;2023-06-14T04:04:35;96.10;;;40.72;;
23586;SDS011;11971;51.148;4.104;2023-06-14T04:07:02;97.25;;;41.13;;
23586;SDS011;11971;51.148;4.104;2023-06-14T04:09:29;97.80;;;41.42;;
23586;SDS011;11971;51.148;4.104;2023-06-14T04:11:56;96.55;;;40.60;;
23586;SDS011;11971;51.148;4.104;2023-06-14T04:14:23;97.20;;;40.35;;
23586;SDS011;11971;51.148;4.104;2023-06-14T04:16:51;96.90;;;40.85;;
23586;SDS011;11971;51.148;4.104;2023-06-14T04:19:18;98.75;;;41.00;;
23586;SDS011;11971;51.148;4.104;2023-06-14T04:21:44;97.55;;;40.33;;
23586;SDS011;11971;51.148;4.104;2023-06-14T04:24:11;95.50;;;40.53;;
23586;SDS011;11971;51.148;4.104;2023-06-14T04:26:38;95.85;;;40.88;;
23586;SDS011;11971;51.148;4.104;2023-06-14T04:29:05;94.82;;;40.25;;
23586;SDS011;11971;51.148;4.104;2023-06-14T04:31:32;97.72;;;40.08;;
23586;SDS011;11971;51.148;4.104;2023-06-14T04:34:00;99.38;;;40.45;;
23586;SDS011;11971;51.148;4.104;2023-06-14T04:36:30;98.30;;;40.20;;
23586;SDS011;11971;51.148;4.104;2023-06-14T04:38:59;102.07;;;41.13;;
23586;SDS011;11971;51.148;4.104;2023-06-14T04:41:28;96.47;;;40.78;;
23586;SDS011;11971;51.148;4.104;2023-06-14T04:43:55;95.28;;;40.50;;
23586;SDS011;11971;51.148;4.104;2023-06-14T04:46:26;97.22;;;40.60;;
23586;SDS011;11971;51.148;4.104;2023-06-14T04:48:53;101.03;;;40.90;;
23586;SDS011;11971;51.148;4.104;2023-06-14T04:51:21;97.90;;;40.85;;
23586;SDS011;11971;51.148;4.104;2023-06-14T04:53:54;98.32;;;40.55;;
23586;SDS011;11971;51.148;4.104;2023-06-14T04:56:22;101.50;;;41.05;;
23586;SDS011;11971;51.148;4.104;2023-06-14T04:58:50;97.85;;;41.15;;
23586;SDS011;11971;51.148;4.104;2023-06-14T05:01:16;96.63;;;40.90;;
23586;SDS011;11971;51.148;4.104;2023-06-14T05:03:43;97.55;;;40.90;;
23586;SDS011;11971;51.148;4.104;2023-06-14T05:06:13;99.88;;;41.40;;
23586;SDS011;11971;51.148;4.104;2023-06-14T05:08:41;98.72;;;41.22;;
23586;SDS011;11971;51.148;4.104;2023-06-14T05:11:08;102.68;;;41.63;;
23586;SDS011;11971;51.148;4.104;2023-06-14T05:13:35;96.35;;;41.20;;
23586;SDS011;11971;51.148;4.104;2023-06-14T05:16:02;100.88;;;41.33;;
23586;SDS011;11971;51.148;4.104;2023-06-14T05:18:29;100.05;;;40.70;;
23586;SDS011;11971;51.148;4.104;2023-06-14T05:20:55;101.18;;;41.33;;
23586;SDS011;11971;51.148;4.104;2023-06-14T05:23:22;100.53;;;41.33;;
23586;SDS011;11971;51.148;4.104;2023-06-14T05:25:50;99.15;;;41.72;;
23586;SDS011;11971;51.148;4.104;2023-06-14T05:28:17;101.18;;;41.80;;
23586;SDS011;11971;51.148;4.104;2023-06-14T05:30:43;98.60;;;41.53;;
23586;SDS011;11971;51.148;4.104;2023-06-14T05:33:10;98.82;;;41.75;;
23586;SDS011;11971;51.148;4.104;2023-06-14T05:35:37;101.30;;;41.80;;
23586;SDS011;11971;51.148;4.104;2023-06-14T05:38:04;99.88;;;41.45;;
23586;SDS011;11971;51.148;4.104;2023-06-14T05:40:32;109.78;;;41.72;;
23586;SDS011;11971;51.148;4.104;2023-06-14T05:43:01;99.75;;;41.97;;
23586;SDS011;11971;51.148;4.104;2023-06-14T05:45:27;103.95;;;42.42;;
23586;SDS011;11971;51.148;4.104;2023-06-14T05:47:54;102.55;;;42.65;;
23586;SDS011;11971;51.148;4.104;2023-06-14T05:50:21;101.00;;;42.13;;
23586;SDS011;11971;51.148;4.104;2023-06-14T05:52:48;100.50;;;42.40;;
23586;SDS011;11971;51.148;4.104;2023-06-14T05:55:15;104.35;;;42.55;;
23586;SDS011;11971;51.148;4.104;2023-06-14T05:57:42;103.35;;;42.85;;
23586;SDS011;11971;51.148;4.104;2023-06-14T06:00:11;105.47;;;42.38;;
23586;SDS011;11971;51.148;4.104;2023-06-14T06:02:41;102.10;;;42.28;;
23586;SDS011;11971;51.148;4.104;2023-06-14T06:05:08;103.30;;;42.67;;
23586;SDS011;11971;51.148;4.104;2023-06-14T06:07:35;102.05;;;42.55;;
23586;SDS011;11971;51.148;4.104;2023-06-14T06:10:02;109.50;;;42.90;;
23586;SDS011;11971;51.148;4.104;2023-06-14T06:12:29;107.10;;;43.80;;
23586;SDS011;11971;51.148;4.104;2023-06-14T06:14:57;108.70;;;44.00;;
23586;SDS011;11971;51.148;4.104;2023-06-14T06:17:25;107.95;;;43.20;;
23586;SDS011;11971;51.148;4.104;2023-06-14T06:19:52;105.32;;;43.78;;
23586;SDS011;11971;51.148;4.104;2023-06-14T06:22:19;105.85;;;43.40;;
23586;SDS011;11971;51.148;4.104;2023-06-14T06:24:45;104.72;;;43.42;;
23586;SDS011;11971;51.148;4.104;2023-06-14T06:27:12;109.25;;;43.40;;
23586;SDS011;11971;51.148;4.104;2023-06-14T06:29:41;105.57;;;43.28;;
23586;SDS011;11971;51.148;4.104;2023-06-14T06:32:08;102.90;;;43.45;;
23586;SDS011;11971;51.148;4.104;2023-06-14T06:34:36;107.18;;;44.17;;
23586;SDS011;11971;51.148;4.104;2023-06-14T06:37:03;104.80;;;43.67;;
23586;SDS011;11971;51.148;4.104;2023-06-14T06:39:31;106.15;;;43.70;;
23586;SDS011;11971;51.148;4.104;2023-06-14T06:41:57;104.90;;;43.85;;
23586;SDS011;11971;51.148;4.104;2023-06-14T06:44:24;108.18;;;44.13;;
23586;SDS011;11971;51.148;4.104;2023-06-14T06:46:51;105.15;;;44.25;;
23586;SDS011;11971;51.148;4.104;2023-06-14T06:49:18;111.95;;;43.88;;
23586;SDS011;11971;51.148;4.104;2023-06-14T06:51:59;106.00;;;44.05;;
23586;SDS011;11971;51.148;4.104;2023-06-14T06:54:27;109.13;;;44.28;;
23586;SDS011;11971;51.148;4.104;2023-06-14T06:56:53;105.95;;;44.28;;
23586;SDS011;11971;51.148;4.104;2023-06-14T06:59:20;106.75;;;43.20;;
23586;SDS011;11971;51.148;4.104;2023-06-14T07:01:47;101.68;;;43.33;;
23586;SDS011;11971;51.148;4.104;2023-06-14T07:04:14;106.03;;;43.75;;
23586;SDS011;11971;51.148;4.104;2023-06-14T07:06:41;108.78;;;43.85;;
23586;SDS011;11971;51.148;4.104;2023-06-14T07:09:09;114.65;;;44.33;;
23586;SDS011;11971;51.148;4.104;2023-06-14T07:11:38;108.72;;;43.90;;
23586;SDS011;11971;51.148;4.104;2023-06-14T07:14:04;115.65;;;44.00;;
23586;SDS011;11971;51.148;4.104;2023-06-14T07:16:31;113.32;;;43.85;;
23586;SDS011;11971;51.148;4.104;2023-06-14T07:18:58;106.38;;;44.22;;
23586;SDS011;11971;51.148;4.104;2023-06-14T07:21:25;108.63;;;44.28;;
23586;SDS011;11971;51.148;4.104;2023-06-14T07:23:52;112.97;;;44.22;;
23586;SDS011;11971;51.148;4.104;2023-06-14T07:26:20;112.10;;;43.88;;
23586;SDS011;11971;51.148;4.104;2023-06-14T07:28:47;106.43;;;43.83;;
23586;SDS011;11971;51.148;4.104;2023-06-14T07:31:14;108.15;;;44.15;;
23586;SDS011;11971;51.148;4.104;2023-06-14T07:33:40;107.20;;;43.95;;
23586;SDS011;11971;51.148;4.104;2023-06-14T07:36:08;107.65;;;44.03;;
23586;SDS011;11971;51.148;4.104;2023-06-14T07:38:35;105.90;;;43.85;;
23586;SDS011;11971;51.148;4.104;2023-06-14T07:41:05;104.38;;;43.78;;
23586;SDS011;11971;51.148;4.104;2023-06-14T07:43:33;110.07;;;44.63;;
23586;SDS011;11971;51.148;4.104;2023-06-14T07:46:00;107.88;;;43.75;;
23586;SDS011;11971;51.148;4.104;2023-06-14T07:48:27;111.47;;;43.75;;
23586;SDS011;11971;51.148;4.104;2023-06-14T07:50:54;107.88;;;44.03;;
23586;SDS011;11971;51.148;4.104;2023-06-14T07:53:21;107.10;;;43.83;;
23586;SDS011;11971;51.148;4.104;2023-06-14T07:55:47;104.20;;;43.97;;
23586;SDS011;11971;51.148;4.104;2023-06-14T07:58:14;111.85;;;44.17;;
23586;SDS011;11971;51.148;4.104;2023-06-14T08:00:42;110.18;;;44.33;;
23586;SDS011;11971;51.148;4.104;2023-06-14T08:03:09;108.22;;;43.85;;
23586;SDS011;11971;51.148;4.104;2023-06-14T08:05:36;111.15;;;43.80;;
23586;SDS011;11971;51.148;4.104;2023-06-14T08:08:02;107.75;;;45.13;;
23586;SDS011;11971;51.148;4.104;2023-06-14T08:10:29;112.22;;;46.15;;
23586;SDS011;11971;51.148;4.104;2023-06-14T08:12:56;109.30;;;44.75;;
23586;SDS011;11971;51.148;4.104;2023-06-14T08:15:22;112.15;;;44.42;;
23586;SDS011;11971;51.148;4.104;2023-06-14T08:17:51;109.07;;;45.30;;
23586;SDS011;11971;51.148;4.104;2023-06-14T08:20:17;117.40;;;45.83;;
23586;SDS011;11971;51.148;4.104;2023-06-14T08:22:45;114.77;;;45.43;;
23586;SDS011;11971;51.148;4.104;2023-06-14T08:25:13;111.32;;;45.83;;
23586;SDS011;11971;51.148;4.104;2023-06-14T08:27:40;111.80;;;45.78;;
23586;SDS011;11971;51.148;4.104;2023-06-14T08:30:07;112.35;;;45.92;;
23586;SDS011;11971;51.148;4.104;2023-06-14T08:32:35;113.77;;;45.97;;
23586;SDS011;11971;51.148;4.104;2023-06-14T08:35:03;110.32;;;45.80;;
23586;SDS011;11971;51.148;4.104;2023-06-14T08:39:58;107.78;;;45.40;;
23586;SDS011;11971;51.148;4.104;2023-06-14T08:42:25;113.63;;;45.90;;
23586;SDS011;11971;51.148;4.104;2023-06-14T08:44:52;108.70;;;45.42;;
23586;SDS011;11971;51.148;4.104;2023-06-14T08:47:18;107.63;;;45.35;;
23586;SDS011;11971;51.148;4.104;2023-06-14T08:49:46;111.00;;;45.53;;
23586;SDS011;11971;51.148;4.104;2023-06-14T08:52:15;112.82;;;45.25;;
23586;SDS011;11971;51.148;4.104;2023-06-14T08:54:43;113.00;;;44.67;;
23586;SDS011;11971;51.148;4.104;2023-06-14T08:57:13;112.10;;;45.80;;
23586;SDS011;11971;51.148;4.104;2023-06-14T08:59:45;114.43;;;46.25;;
23586;SDS011;11971;51.148;4.104;2023-06-14T09:02:14;107.63;;;45.63;;
23586;SDS011;11971;51.148;4.104;2023-06-14T09:04:43;108.88;;;45.75;;
23586;SDS011;11971;51.148;4.104;2023-06-14T09:07:09;112.35;;;45.78;;
23586;SDS011;11971;51.148;4.104;2023-06-14T09:09:39;108.38;;;45.45;;
23586;SDS011;11971;51.148;4.104;2023-06-14T09:12:07;115.47;;;46.00;;
23586;SDS011;11971;51.148;4.104;2023-06-14T09:14:36;109.10;;;45.60;;
23586;SDS011;11971;51.148;4.104;2023-06-14T09:17:05;107.75;;;45.13;;
23586;SDS011;11971;51.148;4.104;2023-06-14T09:19:31;122.85;;;47.20;;
23586;SDS011;11971;51.148;4.104;2023-06-14T09:21:58;111.80;;;45.30;;
23586;SDS011;11971;51.148;4.104;2023-06-14T09:24:25;116.35;;;46.00;;
23586;SDS011;11971;51.148;4.104;2023-06-14T09:26:54;111.28;;;45.05;;
23586;SDS011;11971;51.148;4.104;2023-06-14T09:29:20;109.00;;;44.80;;
23586;SDS011;11971;51.148;4.104;2023-06-14T09:31:47;110.90;;;45.00;;
23586;SDS011;11971;51.148;4.104;2023-06-14T09:34:14;108.80;;;45.42;;
23586;SDS011;11971;51.148;4.104;2023-06-14T09:39:09;109.00;;;44.38;;
23586;SDS011;11971;51.148;4.104;2023-06-14T09:41:36;109.57;;;44.55;;
23586;SDS011;11971;51.148;4.104;2023-06-14T09:44:06;106.00;;;44.10;;
23586;SDS011;11971;51.148;4.104;2023-06-14T09:46:33;106.95;;;44.92;;
23586;SDS011;11971;51.148;4.104;2023-06-14T09:49:01;111.05;;;44.58;;
23586;SDS011;11971;51.148;4.104;2023-06-14T09:51:28;114.88;;;45.38;;
23586;SDS011;11971;51.148;4.104;2023-06-14T09:53:58;109.47;;;44.70;;
23586;SDS011;11971;51.148;4.104;2023-06-14T09:56:26;112.65;;;44.65;;
23586;SDS011;11971;51.148;4.104;2023-06-14T09:58:55;108.68;;;44.50;;
23586;SDS011;11971;51.148;4.104;2023-06-14T10:01:24;110.30;;;44.58;;
23586;SDS011;11971;51.148;4.104;2023-06-14T10:03:52;111.85;;;44.85;;
23586;SDS011;11971;51.148;4.104;2023-06-14T10:06:22;108.00;;;44.72;;
23586;SDS011;11971;51.148;4.104;2023-06-14T10:08:49;108.43;;;45.20;;
23586;SDS011;11971;51.148;4.104;2023-06-14T10:11:17;107.20;;;44.47;;
23586;SDS011;11971;51.148;4.104;2023-06-14T10:13:45;106.93;;;44.72;;
23586;SDS011;11971;51.148;4.104;2023-06-14T10:16:12;116.90;;;44.95;;
23586;SDS011;11971;51.148;4.104;2023-06-14T10:18:45;109.10;;;44.83;;
23586;SDS011;11971;51.148;4.104;2023-06-14T10:21:18;113.40;;;45.28;;
23586;SDS011;11971;51.148;4.104;2023-06-14T10:23:48;111.90;;;44.78;;
23586;SDS011;11971;51.148;4.104;2023-06-14T10:26:19;109.32;;;45.35;;
23586;SDS011;11971;51.148;4.104;2023-06-14T10:28:56;106.20;;;44.53;;
23586;SDS011;11971;51.148;4.104;2023-06-14T10:31:39;107.70;;;44.65;;
23586;SDS011;11971;51.148;4.104;2023-06-14T10:34:07;112.30;;;44.65;;
23586;SDS011;11971;51.148;4.104;2023-06-14T10:36:34;112.38;;;44.17;;
23586;SDS011;11971;51.148;4.104;2023-06-14T10:39:03;106.88;;;44.35;;
23586;SDS011;11971;51.148;4.104;2023-06-14T10:41:31;106.78;;;44.33;;
23586;SDS011;11971;51.148;4.104;2023-06-14T10:46:58;107.78;;;44.45;;
23586;SDS011;11971;51.148;4.104;2023-06-14T10:52:10;108.88;;;43.72;;
23586;SDS011;11971;51.148;4.104;2023-06-14T10:57:39;111.97;;;45.40;;
23586;SDS011;11971;51.148;4.104;2023-06-14T11:00:07;108.25;;;44.28;;
23586;SDS011;11971;51.148;4.104;2023-06-14T11:05:48;108.85;;;44.40;;
23586;SDS011;11971;51.148;4.104;2023-06-14T11:11:19;112.68;;;44.88;;
23586;SDS011;11971;51.148;4.104;2023-06-14T11:13:48;109.40;;;44.65;;
23586;SDS011;11971;51.148;4.104;2023-06-14T11:16:15;110.80;;;44.70;;
23586;SDS011;11971;51.148;4.104;2023-06-14T11:18:44;107.90;;;43.78;;
23586;SDS011;11971;51.148;4.104;2023-06-14T11:21:15;110.60;;;44.63;;
23586;SDS011;11971;51.148;4.104;2023-06-14T11:23:42;110.45;;;44.03;;
23586;SDS011;11971;51.148;4.104;2023-06-14T11:26:08;106.10;;;43.88;;
23586;SDS011;11971;51.148;4.104;2023-06-14T11:28:36;107.40;;;44.20;;
23586;SDS011;11971;51.148;4.104;2023-06-14T11:31:06;105.78;;;43.40;;
23586;SDS011;11971;51.148;4.104;2023-06-14T11:33:33;107.85;;;43.88;;
23586;SDS011;11971;51.148;4.104;2023-06-14T11:36:01;107.70;;;44.00;;
23586;SDS011;11971;51.148;4.104;2023-06-14T11:38:34;107.68;;;43.90;;
23586;SDS011;11971;51.148;4.104;2023-06-14T11:41:01;107.15;;;43.80;;
23586;SDS011;11971;51.148;4.104;2023-06-14T11:43:29;110.00;;;43.58;;
23586;SDS011;11971;51.148;4.104;2023-06-14T11:45:57;108.70;;;44.15;;
23586;SDS011;11971;51.148;4.104;2023-06-14T11:48:30;109.68;;;44.05;;
23586;SDS011;11971;51.148;4.104;2023-06-14T11:51:02;110.45;;;43.85;;
23586;SDS011;11971;51.148;4.104;2023-06-14T11:53:29;104.43;;;43.72;;
23586;SDS011;11971;51.148;4.104;2023-06-14T11:55:57;108.33;;;44.10;;
23586;SDS011;11971;51.148;4.104;2023-06-14T11:58:25;110.00;;;43.85;;
23586;SDS011;11971;51.148;4.104;2023-06-14T12:00:52;105.35;;;43.65;;
23586;SDS011;11971;51.148;4.104;2023-06-14T12:03:22;108.13;;;44.10;;
23586;SDS011;11971;51.148;4.104;2023-06-14T12:05:49;113.65;;;44.10;;
23586;SDS011;11971;51.148;4.104;2023-06-14T12:08:16;106.70;;;43.75;;
23586;SDS011;11971;51.148;4.104;2023-06-14T12:10:45;107.00;;;43.97;;
23586;SDS011;11971;51.148;4.104;2023-06-14T12:13:12;110.40;;;43.33;;
23586;SDS011;11971;51.148;4.104;2023-06-14T12:15:39;107.35;;;43.95;;
23586;SDS011;11971;51.148;4.104;2023-06-14T12:18:06;108.80;;;44.30;;
23586;SDS011;11971;51.148;4.104;2023-06-14T12:20:34;107.33;;;44.77;;
23586;SDS011;11971;51.148;4.104;2023-06-14T12:23:02;107.82;;;44.53;;
23586;SDS011;11971;51.148;4.104;2023-06-14T12:25:31;108.70;;;44.17;;
23586;SDS011;11971;51.148;4.104;2023-06-14T12:28:03;117.82;;;45.03;;
23586;SDS011;11971;51.148;4.104;2023-06-14T12:30:31;110.97;;;44.72;;
23586;SDS011;11971;51.148;4.104;2023-06-14T12:32:57;105.82;;;44.72;;
23586;SDS011;11971;51.148;4.104;2023-06-14T12:35:25;106.88;;;44.08;;
23586;SDS011;11971;51.148;4.104;2023-06-14T12:37:52;107.80;;;44.08;;
23586;SDS011;11971;51.148;4.104;2023-06-14T12:40:18;105.78;;;44.20;;
23586;SDS011;11971;51.148;4.104;2023-06-14T12:42:45;117.15;;;44.63;;
23586;SDS011;11971;51.148;4.104;2023-06-14T12:45:14;107.75;;;43.97;;
23586;SDS011;11971;51.148;4.104;2023-06-14T12:47:41;111.43;;;44.42;;
23586;SDS011;11971;51.148;4.104;2023-06-14T12:50:08;106.57;;;44.33;;
23586;SDS011;11971;51.148;4.104;2023-06-14T12:52:35;111.28;;;43.90;;
23586;SDS011;11971;51.148;4.104;2023-06-14T12:55:02;107.10;;;44.25;;
23586;SDS011;11971;51.148;4.104;2023-06-14T12:57:29;113.50;;;44.20;;
23586;SDS011;11971;51.148;4.104;2023-06-14T12:59:56;105.45;;;43.75;;
23586;SDS011;11971;51.148;4.104;2023-06-14T13:02:24;108.50;;;43.97;;
23586;SDS011;11971;51.148;4.104;2023-06-14T13:04:51;111.80;;;44.03;;
23586;SDS011;11971;51.148;4.104;2023-06-14T13:07:18;111.28;;;43.72;;
23586;SDS011;11971;51.148;4.104;2023-06-14T13:09:45;105.20;;;44.05;;
23586;SDS011;11971;51.148;4.104;2023-06-14T13:12:11;111.95;;;43.63;;
23586;SDS011;11971;51.148;4.104;2023-06-14T13:14:38;110.28;;;43.78;;
23586;SDS011;11971;51.148;4.104;2023-06-14T13:17:05;107.82;;;44.22;;
23586;SDS011;11971;51.148;4.104;2023-06-14T13:19:33;114.78;;;44.33;;
23586;SDS011;11971;51.148;4.104;2023-06-14T13:22:00;111.00;;;43.95;;
23586;SDS011;11971;51.148;4.104;2023-06-14T13:24:27;104.95;;;43.92;;
23586;SDS011;11971;51.148;4.104;2023-06-14T13:26:54;104.13;;;43.03;;
23586;SDS011;11971;51.148;4.104;2023-06-14T13:29:22;107.90;;;43.42;;
23586;SDS011;11971;51.148;4.104;2023-06-14T13:31:49;108.20;;;43.40;;
23586;SDS011;11971;51.148;4.104;2023-06-14T13:34:15;111.38;;;43.70;;
23586;SDS011;11971;51.148;4.104;2023-06-14T13:36:44;108.22;;;42.85;;
23586;SDS011;11971;51.148;4.104;2023-06-14T13:39:10;106.72;;;43.78;;
23586;SDS011;11971;51.148;4.104;2023-06-14T13:41:37;106.53;;;43.15;;
23586;SDS011;11971;51.148;4.104;2023-06-14T13:44:04;106.82;;;42.75;;
23586;SDS011;11971;51.148;4.104;2023-06-14T13:46:30;108.53;;;43.15;;
23586;SDS011;11971;51.148;4.104;2023-06-14T13:48:57;105.85;;;42.53;;
23586;SDS011;11971;51.148;4.104;2023-06-14T13:51:25;106.53;;;42.33;;
23586;SDS011;11971;51.148;4.104;2023-06-14T13:53:53;105.22;;;42.45;;
23586;SDS011;11971;51.148;4.104;2023-06-14T13:56:22;103.88;;;42.42;;
23586;SDS011;11971;51.148;4.104;2023-06-14T13:58:49;104.65;;;42.25;;
23586;SDS011;11971;51.148;4.104;2023-06-14T14:01:17;104.32;;;42.13;;
23586;SDS011;11971;51.148;4.104;2023-06-14T14:03:44;107.72;;;41.95;;
23586;SDS011;11971;51.148;4.104;2023-06-14T14:06:11;107.25;;;41.72;;
23586;SDS011;11971;51.148;4.104;2023-06-14T14:08:39;108.47;;;42.38;;
23586;SDS011;11971;51.148;4.104;2023-06-14T14:11:07;106.55;;;41.88;;
23586;SDS011;11971;51.148;4.104;2023-06-14T14:13:34;105.47;;;41.67;;
23586;SDS011;11971;51.148;4.104;2023-06-14T14:16:08;104.68;;;41.97;;
23586;SDS011;11971;51.148;4.104;2023-06-14T14:18:35;112.30;;;42.10;;
23586;SDS011;11971;51.148;4.104;2023-06-14T14:21:02;104.95;;;41.67;;
23586;SDS011;11971;51.148;4.104;2023-06-14T14:23:29;103.07;;;41.50;;
23586;SDS011;11971;51.148;4.104;2023-06-14T14:26:00;104.45;;;41.60;;
23586;SDS011;11971;51.148;4.104;2023-06-14T14:30:57;104.18;;;42.00;;
23586;SDS011;11971;51.148;4.104;2023-06-14T14:33:24;104.45;;;42.03;;
23586;SDS011;11971;51.148;4.104;2023-06-14T14:35:51;105.57;;;42.10;;